METAR Analyzer

一覧表示

Hello, Guest. (Login)

RJTT/HND  -  東京/羽田

観測日時
2021-01-27 15:30 (UTC) (75分前)
気温
9
露点
0
湿数
9
相対湿度
53.2%
QNH
1016hPa
推定現地気圧
1015.3hPa
推定海面気圧
1016.0hPa
体感温度
-0.7
(無風時)
11.9
HI
7.3
気温前日比
-1
体感温度前日比
-3.8
HI前日比
-1.7
水平視程
>10000m
鉛直視程
データなし
雲底高度
5000ft AGL
V/I
VMC (VFR)
RVR
No RVR data
卓越風
9kt from 50°
ガスト
No gust
降水
報告なし
その他の天気
報告なし
少しの雲 @ 3000ft AGL / 隙間のある雲 @ 5000ft AGL / 隙間のある雲 @ 不明な高さ

RJTT 271530Z 05009KT 9999 FEW030 BKN050 BKN/// 09/M00 Q1016 NOSIG

株式会社マネーパートナーズ 【Manepa Card】

RJAA/NRT  -  東京/成田

観測日時
2021-01-27 15:30 (UTC) (75分前)
気温
5
露点
-1
湿数
6
相対湿度
65.1%
QNH
1016hPa
推定現地気圧
1014.7hPa
推定海面気圧
1016.1hPa
体感温度
-6.7
(無風時)
8.8
HI
3.3
気温前日比
-3
体感温度前日比
-9.7
HI前日比
-4.2
水平視程
>10000m
鉛直視程
データなし
雲底高度
No dense clouds
V/I
VMC (VFR)
RVR
No RVR data
卓越風
10kt from 360°
ガスト
No gust
降水
報告なし
その他の天気
報告なし
少しの雲 @ 3000ft AGL

RJAA 271530Z 36010KT 9999 FEW030 05/M01 Q1016 NOSIG

RJAH/IBR  -  茨城(百里基地)

観測日時
2021-01-27 16:00 (UTC) (45分前)
気温
2
露点
-4
湿数
6
相対湿度
64.4%
QNH
1016hPa
推定現地気圧
1012.0hPa
推定海面気圧
1016.1hPa
体感温度
-6.6
(無風時)
6.6
HI
-0.1
気温前日比
-5
体感温度前日比
-5.5
HI前日比
-6.3
水平視程
>10000m
鉛直視程
データなし
雲底高度
Unknown
V/I
判定不可
RVR
No RVR data
卓越風
5kt from 360°
ガスト
No gust
降水
報告なし
その他の天気
報告なし
少しの雲 @ 3000ft AGL / 隙間のある雲 @ 不明な高さ

RJAH 271600Z 36005KT 9999 FEW030 BKN/// 02/M04 Q1016

9.3msec